Time;durP1;ratioP1;P1;durP2;ratioP2;P2;SDS_P1;SDS_P2;PMS_P1;PMS_P2;Temp;Humidity;BMP_temperature;BMP_pressure;BME280_temperature;BME280_humidity;BME280_pressure;Samples;Min_cycle;Max_cycle;Signal;HPM_P1;HPM_P2
2023/12/30 00:01:21;;;;;;;12.47;2.00;;;6.40;99.90;;;;;;5095884;28;20122;-81
2023/12/30 00:03:47;;;;;;;14.37;2.13;;;6.50;99.90;;;;;;5091296;28;20310;-81
2023/12/30 00:06:15;;;;;;;12.43;2.53;;;6.50;99.90;;;;;;5093960;28;20365;-81
2023/12/30 00:08:41;;;;;;;14.30;2.00;;;6.50;99.90;;;;;;5093692;28;20297;-80
2023/12/30 00:11:07;;;;;;;13.60;2.47;;;6.50;99.90;;;;;;5094096;28;20862;-81
2023/12/30 00:13:33;;;;;;;12.50;2.17;;;6.40;99.90;;;;;;5094239;28;20361;-81
2023/12/30 00:15:59;;;;;;;18.07;2.60;;;6.40;99.90;;;;;;5092728;28;20525;-81
2023/12/30 00:18:24;;;;;;;13.03;2.47;;;6.40;99.90;;;;;;5095326;28;20048;-82
2023/12/30 00:20:50;;;;;;;13.20;2.80;;;6.40;99.90;;;;;;5094478;28;20794;-82
2023/12/30 00:23:17;;;;;;;12.50;2.43;;;6.50;99.90;;;;;;5095457;28;20044;-82
2023/12/30 00:25:43;;;;;;;15.23;2.60;;;6.40;99.90;;;;;;5094511;28;20086;-82
2023/12/30 00:28:09;;;;;;;19.33;2.60;;;6.50;99.90;;;;;;5095400;28;20324;-82
2023/12/30 00:30:35;;;;;;;13.10;2.60;;;6.50;99.90;;;;;;5095612;28;20095;-82
2023/12/30 00:33:00;;;;;;;9.83;1.73;;;6.50;99.90;;;;;;5095297;28;20085;-82
2023/12/30 00:35:26;;;;;;;14.63;2.10;;;6.50;99.90;;;;;;5094127;28;20056;-81
2023/12/30 00:37:55;;;;;;;13.33;2.13;;;6.50;99.90;;;;;;5077154;28;20056;-82
2023/12/30 00:40:21;;;;;;;13.37;2.67;;;6.50;99.90;;;;;;5095568;28;20044;-82
2023/12/30 00:42:47;;;;;;;14.57;2.10;;;6.50;99.90;;;;;;5095136;28;20324;-82
2023/12/30 00:45:12;;;;;;;14.87;2.90;;;6.50;99.90;;;;;;5095348;28;20048;-82
2023/12/30 00:47:38;;;;;;;20.13;2.70;;;6.40;99.90;;;;;;5077312;28;20401;-82
2023/12/30 00:50:04;;;;;;;13.83;2.73;;;6.50;99.90;;;;;;5094764;28;20443;-82
2023/12/30 00:52:30;;;;;;;11.17;1.97;;;6.50;99.90;;;;;;5095266;28;20051;-82
2023/12/30 00:54:56;;;;;;;27.93;3.17;;;6.50;99.90;;;;;;5093932;28;20286;-83
2023/12/30 00:57:22;;;;;;;13.63;2.47;;;6.40;99.90;;;;;;5094941;28;20497;-82
2023/12/30 00:59:47;;;;;;;13.63;2.03;;;6.50;99.90;;;;;;5076987;28;20140;-82
2023/12/30 01:02:13;;;;;;;15.93;2.23;;;6.40;99.90;;;;;;5094072;28;20758;-82
2023/12/30 01:04:39;;;;;;;15.87;2.87;;;6.40;99.90;;;;;;5093351;28;20126;-81
2023/12/30 01:07:04;;;;;;;15.30;2.53;;;6.40;99.90;;;;;;5093412;28;20040;-82
2023/12/30 01:09:30;;;;;;;15.83;2.87;;;6.40;99.90;;;;;;5093777;28;20144;-82
2023/12/30 01:11:56;;;;;;;13.20;2.63;;;6.40;99.90;;;;;;5093446;28;20073;-82
2023/12/30 01:14:22;;;;;;;15.20;3.07;;;6.40;99.90;;;;;;5094431;28;20085;-82
2023/12/30 01:16:47;;;;;;;9.57;1.93;;;6.30;99.90;;;;;;5094407;28;20048;-82
2023/12/30 01:19:13;;;;;;;13.67;2.30;;;6.40;99.90;;;;;;5093429;28;20056;-82
2023/12/30 01:21:39;;;;;;;20.60;2.90;;;6.40;99.90;;;;;;5094633;28;20051;-82
2023/12/30 01:24:05;;;;;;;13.90;2.67;;;6.30;99.90;;;;;;5094224;28;20059;-81
2023/12/30 01:26:30;;;;;;;14.83;2.60;;;6.40;99.90;;;;;;5093497;28;20048;-81
2023/12/30 01:28:56;;;;;;;16.27;2.30;;;6.40;99.90;;;;;;5093102;28;20051;-81
2023/12/30 01:31:22;;;;;;;16.77;3.00;;;6.40;99.90;;;;;;5094197;28;20044;-82
2023/12/30 01:33:47;;;;;;;14.43;2.60;;;6.40;99.90;;;;;;5093973;28;20044;-81
2023/12/30 01:36:13;;;;;;;12.30;2.13;;;6.40;99.90;;;;;;5092763;28;20108;-82
2023/12/30 01:38:41;;;;;;;18.90;3.33;;;6.30;99.90;;;;;;5093324;28;20401;-82
2023/12/30 01:41:07;;;;;;;13.40;2.03;;;6.40;99.90;;;;;;5076056;28;20101;-82
2023/12/30 01:43:33;;;;;;;18.25;3.35;;;6.30;99.90;;;;;;5093080;28;20302;-82
2023/12/30 01:46:03;;;;;;;15.63;2.57;;;6.40;99.90;;;;;;5092803;28;20182;-82
2023/12/30 01:48:30;;;;;;;10.17;2.30;;;6.40;99.90;;;;;;5092958;28;20048;-82
2023/12/30 01:50:57;;;;;;;11.63;2.93;;;6.40;99.90;;;;;;5093845;28;20277;-82
2023/12/30 01:53:28;;;;;;;13.37;1.90;;;6.40;99.90;;;;;;5076069;28;20289;-82
2023/12/30 01:55:55;;;;;;;12.10;2.50;;;6.40;99.90;;;;;;5093602;28;20644;-82
2023/12/30 01:58:21;;;;;;;16.42;2.20;;;6.40;99.90;;;;;;5093170;28;20286;-82
2023/12/30 02:00:57;;;;;;;15.70;2.47;;;6.50;99.90;;;;;;5092678;28;20555;-82
2023/12/30 02:03:23;;;;;;;21.00;3.15;;;6.50;99.90;;;;;;5091405;28;20477;-82
2023/12/30 02:05:48;;;;;;;12.63;2.47;;;6.50;99.90;;;;;;5091428;28;20052;-82
2023/12/30 02:08:15;;;;;;;13.83;2.50;;;6.50;99.90;;;;;;5091798;28;20443;-82
2023/12/30 02:10:41;;;;;;;17.30;2.80;;;6.50;99.90;;;;;;5073964;28;20044;-83
2023/12/30 02:13:07;;;;;;;14.23;2.63;;;6.60;99.90;;;;;;5091502;28;20282;-82
2023/12/30 02:15:35;;;;;;;12.77;2.13;;;6.60;99.90;;;;;;5090606;28;20036;-83
2023/12/30 02:18:01;;;;;;;12.80;1.83;;;6.60;99.90;;;;;;5092545;28;20284;-84
2023/12/30 02:20:28;;;;;;;12.70;2.63;;;6.60;99.90;;;;;;5092722;28;20635;-83
2023/12/30 02:22:53;;;;;;;16.37;2.67;;;6.60;99.90;;;;;;5092341;28;20365;-83
2023/12/30 02:25:19;;;;;;;12.47;2.93;;;6.60;99.90;;;;;;5092377;28;20849;-83
2023/12/30 02:27:46;;;;;;;13.13;2.47;;;6.60;99.90;;;;;;5092203;28;20052;-83
2023/12/30 02:30:13;;;;;;;13.43;2.17;;;6.60;99.90;;;;;;5092136;28;20048;-83
2023/12/30 02:32:38;;;;;;;15.33;2.67;;;6.60;99.90;;;;;;5092521;28;20282;-83
2023/12/30 02:35:05;;;;;;;16.17;2.43;;;6.70;99.90;;;;;;5074921;28;20338;-83
2023/12/30 02:37:30;;;;;;;13.37;2.53;;;6.70;99.90;;;;;;5092426;28;20148;-83
2023/12/30 02:39:56;;;;;;;22.07;3.13;;;6.70;99.90;;;;;;5093049;28;20314;-83
2023/12/30 02:42:22;;;;;;;15.07;2.97;;;6.70;99.90;;;;;;5092132;28;20048;-83
2023/12/30 02:44:48;;;;;;;13.13;2.77;;;6.80;99.90;;;;;;5093053;28;20071;-83
2023/12/30 02:47:14;;;;;;;14.93;3.43;;;6.70;99.90;;;;;;5075422;28;20127;-83
2023/12/30 02:49:43;;;;;;;20.40;3.33;;;6.70;99.90;;;;;;5093377;28;20754;-84
2023/12/30 02:52:09;;;;;;;15.30;3.33;;;6.70;99.90;;;;;;5092089;28;20486;-84
2023/12/30 02:54:35;;;;;;;17.20;2.37;;;6.80;99.90;;;;;;5093108;28;20182;-84
2023/12/30 02:57:02;;;;;;;19.73;2.80;;;6.80;99.90;;;;;;5091940;28;20050;-83
2023/12/30 02:59:29;;;;;;;14.13;2.37;;;6.80;99.90;;;;;;5091908;28;20048;-84
2023/12/30 03:01:55;;;;;;;17.37;3.20;;;6.80;99.90;;;;;;5091992;28;20274;-82
2023/12/30 03:04:20;;;;;;;15.77;2.67;;;6.70;99.90;;;;;;5075015;28;20332;-84
2023/12/30 03:06:46;;;;;;;17.17;2.70;;;6.70;99.90;;;;;;5091794;28;20048;-84
2023/12/30 03:09:12;;;;;;;15.67;2.63;;;6.70;99.90;;;;;;5091731;28;20048;-84
2023/12/30 03:11:38;;;;;;;12.37;2.17;;;6.70;99.90;;;;;;5075049;28;20087;-83
2023/12/30 03:14:04;;;;;;;20.93;2.77;;;6.70;99.90;;;;;;5091729;28;20079;-83
2023/12/30 03:16:30;;;;;;;17.40;3.37;;;6.70;99.90;;;;;;5093083;28;20344;-83
2023/12/30 03:18:56;;;;;;;17.20;3.97;;;6.70;99.90;;;;;;5091959;28;20126;-81
2023/12/30 03:21:22;;;;;;;15.43;3.13;;;6.70;99.90;;;;;;5091929;28;20380;-83
2023/12/30 03:23:47;;;;;;;15.10;2.50;;;6.70;99.90;;;;;;5091769;28;20051;-84
2023/12/30 03:26:13;;;;;;;15.30;2.70;;;6.70;99.90;;;;;;5091504;28;20044;-83
2023/12/30 03:28:39;;;;;;;11.17;2.60;;;6.70;99.90;;;;;;5091831;28;20040;-84
2023/12/30 03:31:07;;;;;;;15.43;2.40;;;6.70;99.90;;;;;;5074672;28;20401;-83
2023/12/30 03:33:33;;;;;;;18.03;3.13;;;6.70;99.90;;;;;;5075231;28;20056;-82
2023/12/30 03:35:58;;;;;;;15.53;3.43;;;6.70;99.90;;;;;;5091020;28;20667;-81
2023/12/30 03:38:24;;;;;;;13.33;2.57;;;6.60;99.90;;;;;;5077899;28;20290;-82
2023/12/30 03:40:50;;;;;;;13.70;2.57;;;6.60;99.90;;;;;;5095326;28;20048;-83
2023/12/30 03:43:16;;;;;;;12.30;2.60;;;6.60;99.90;;;;;;5078190;28;20052;-83
2023/12/30 03:45:42;;;;;;;17.27;2.20;;;6.60;99.90;;;;;;5095560;28;20086;-83
2023/12/30 03:48:08;;;;;;;12.83;2.57;;;6.50;99.90;;;;;;5078464;28;20332;-83
2023/12/30 03:50:36;;;;;;;16.70;2.87;;;6.60;99.90;;;;;;5078403;28;20093;-83
2023/12/30 03:53:02;;;;;;;13.33;2.07;;;6.60;99.90;;;;;;5095260;28;20381;-83
2023/12/30 03:55:28;;;;;;;17.17;3.03;;;6.60;99.90;;;;;;5095156;28;20830;-84
2023/12/30 03:57:54;;;;;;;17.23;2.83;;;6.60;99.90;;;;;;5078830;28;20400;-84
2023/12/30 04:00:20;;;;;;;12.53;2.70;;;6.60;99.90;;;;;;5094965;28;20127;-83
2023/12/30 04:02:47;;;;;;;19.33;2.80;;;6.60;99.90;;;;;;5078341;28;20125;-83
2023/12/30 04:05:13;;;;;;;9.90;2.33;;;6.70;99.90;;;;;;5094634;28;20309;-83
2023/12/30 04:07:39;;;;;;;16.93;3.23;;;6.60;99.90;;;;;;5095022;28;20308;-84
2023/12/30 04:10:05;;;;;;;17.70;2.50;;;6.60;99.90;;;;;;5094815;28;20775;-83
2023/12/30 04:12:33;;;;;;;19.57;2.67;;;6.70;99.90;;;;;;5095831;28;20048;-84
2023/12/30 04:14:58;;;;;;;16.90;3.20;;;6.70;99.90;;;;;;5094910;28;20336;-84
2023/12/30 04:17:24;;;;;;;17.10;3.10;;;6.70;99.90;;;;;;5094414;28;20282;-84
2023/12/30 04:19:50;;;;;;;13.67;2.33;;;6.70;99.90;;;;;;5095685;28;20044;-84
2023/12/30 04:22:15;;;;;;;14.67;2.50;;;6.70;99.90;;;;;;5077512;28;20117;-84
2023/12/30 04:24:41;;;;;;;18.47;2.97;;;6.70;99.90;;;;;;5094412;28;20036;-85
2023/12/30 04:27:07;;;;;;;16.60;2.90;;;6.70;99.90;;;;;;5094291;28;20512;-83
2023/12/30 04:29:32;;;;;;;16.43;2.60;;;6.70;99.90;;;;;;5095872;28;20052;-82
2023/12/30 04:31:58;;;;;;;18.23;2.63;;;6.70;99.90;;;;;;5095532;28;20512;-83
2023/12/30 04:34:24;;;;;;;16.10;2.83;;;6.70;99.90;;;;;;5093894;28;20623;-82
2023/12/30 04:36:49;;;;;;;13.77;3.27;;;6.60;99.90;;;;;;5094700;28;20047;-83
2023/12/30 04:39:15;;;;;;;12.73;2.57;;;6.60;99.90;;;;;;5095021;28;20044;-82
2023/12/30 04:41:41;;;;;;;15.60;2.60;;;6.60;99.90;;;;;;5094218;28;20044;-82
2023/12/30 04:44:07;;;;;;;17.53;2.67;;;6.60;99.90;;;;;;5094067;28;20044;-82
2023/12/30 04:46:32;;;;;;;18.27;3.17;;;6.70;99.90;;;;;;5094306;28;20047;-82
2023/12/30 04:49:02;;;;;;;13.50;2.27;;;6.70;99.90;;;;;;5093712;28;20055;-82
2023/12/30 04:51:28;;;;;;;20.07;2.83;;;6.70;99.90;;;;;;5094950;28;20583;-82
2023/12/30 04:53:54;;;;;;;14.03;2.93;;;6.70;99.90;;;;;;5094959;28;20314;-82
2023/12/30 04:56:19;;;;;;;15.20;3.17;;;6.60;99.90;;;;;;5076974;28;20047;-81
2023/12/30 04:58:45;;;;;;;19.77;3.10;;;6.60;99.90;;;;;;5077301;28;20048;-82
2023/12/30 05:01:14;;;;;;;14.47;2.77;;;6.60;99.90;;;;;;5093847;28;20455;-81
2023/12/30 05:03:42;;;;;;;18.20;2.63;;;6.60;99.90;;;;;;5093818;28;20079;-82
2023/12/30 05:06:17;;;;;;;18.27;2.63;;;6.60;99.90;;;;;;5076888;28;20285;-81
2023/12/30 05:08:43;;;;;;;13.95;2.30;;;6.60;99.90;;;;;;5094857;28;20361;-84
2023/12/30 05:11:08;;;;;;;13.43;2.43;;;6.60;99.90;;;;;;5093675;28;20557;-82
2023/12/30 05:13:34;;;;;;;16.83;2.40;;;6.60;99.90;;;;;;5093805;28;20055;-84
2023/12/30 05:16:00;;;;;;;12.17;2.40;;;6.60;99.90;;;;;;5093471;28;20051;-84
2023/12/30 05:18:26;;;;;;;18.93;2.63;;;6.60;99.90;;;;;;5093387;28;20389;-84
2023/12/30 05:20:51;;;;;;;15.90;2.53;;;6.60;99.90;;;;;;5076634;28;20077;-84
2023/12/30 05:23:17;;;;;;;16.83;2.67;;;6.70;99.90;;;;;;5093212;28;20081;-84
2023/12/30 05:25:43;;;;;;;17.90;3.23;;;6.70;99.90;;;;;;5093341;28;20136;-83
2023/12/30 05:28:08;;;;;;;15.53;2.70;;;6.70;99.90;;;;;;5093582;28;20432;-83
2023/12/30 05:30:34;;;;;;;21.63;3.13;;;6.70;99.90;;;;;;5093329;28;20126;-83
2023/12/30 05:33:00;;;;;;;22.87;3.87;;;6.70;99.90;;;;;;5076665;28;20048;-84
2023/12/30 05:35:25;;;;;;;22.87;3.87;;;6.70;99.90;;;;;;5092716;28;20055;-83
2023/12/30 05:37:51;;;;;;;15.20;2.50;;;6.80;99.90;;;;;;5093107;28;20083;-84
2023/12/30 05:40:17;;;;;;;13.97;2.37;;;6.70;99.90;;;;;;5092763;28;20092;-83
2023/12/30 05:42:42;;;;;;;21.07;3.30;;;6.70;99.90;;;;;;5093406;28;20052;-83
2023/12/30 05:45:09;;;;;;;23.33;3.23;;;6.70;99.90;;;;;;5075877;28;20465;-84
2023/12/30 05:47:34;;;;;;;19.97;3.43;;;6.80;99.90;;;;;;5092809;28;20047;-83
2023/12/30 05:50:00;;;;;;;15.80;2.53;;;6.70;99.90;;;;;;5094075;28;20346;-84
2023/12/30 05:52:26;;;;;;;13.60;2.60;;;6.70;99.90;;;;;;5092648;28;20388;-83
2023/12/30 05:54:51;;;;;;;15.50;2.50;;;6.70;99.90;;;;;;5093210;28;20164;-83
2023/12/30 05:57:17;;;;;;;22.33;2.47;;;6.70;99.90;;;;;;5092555;28;20489;-83
2023/12/30 05:59:43;;;;;;;17.60;3.53;;;6.70;99.90;;;;;;5092972;28;20052;-84
2023/12/30 06:02:09;;;;;;;18.07;3.07;;;6.70;99.90;;;;;;5092014;28;20368;-84
2023/12/30 06:04:40;;;;;;;19.73;3.22;;;6.70;99.90;;;;;;5092225;28;20048;-84
2023/12/30 06:07:05;;;;;;;16.93;2.77;;;6.70;99.90;;;;;;5059241;28;20102;-84
2023/12/30 06:09:32;;;;;;;12.57;2.63;;;6.70;99.90;;;;;;5092648;28;20322;-83
2023/12/30 06:11:58;;;;;;;16.80;2.90;;;6.70;99.90;;;;;;5092786;28;20492;-84
2023/12/30 06:14:24;;;;;;;15.67;3.13;;;6.80;99.90;;;;;;5092637;28;20322;-83
2023/12/30 06:16:49;;;;;;;22.00;3.60;;;6.70;99.90;;;;;;5092701;28;20047;-84
2023/12/30 06:19:16;;;;;;;23.57;3.40;;;6.80;99.90;;;;;;5093563;28;20381;-84
2023/12/30 06:21:43;;;;;;;13.27;2.70;;;6.70;99.90;;;;;;5092481;28;20101;-84
2023/12/30 06:24:09;;;;;;;15.70;3.23;;;6.70;99.90;;;;;;5092376;28;20393;-84
2023/12/30 06:26:39;;;;;;;17.73;2.97;;;6.80;99.90;;;;;;5075603;28;20293;-84
2023/12/30 06:29:06;;;;;;;18.90;2.77;;;6.70;99.90;;;;;;5093416;28;20285;-84
2023/12/30 06:31:32;;;;;;;15.17;2.93;;;6.70;99.90;;;;;;5092016;28;20286;-84
2023/12/30 06:33:58;;;;;;;18.07;3.50;;;6.70;99.90;;;;;;5092309;28;20289;-84
2023/12/30 06:36:24;;;;;;;17.60;3.20;;;6.60;99.90;;;;;;5091959;28;20087;-84
2023/12/30 06:38:50;;;;;;;17.43;2.80;;;6.60;99.90;;;;;;5075608;28;20154;-84
2023/12/30 06:41:20;;;;;;;19.43;2.80;;;6.60;99.90;;;;;;5092355;28;20055;-84
2023/12/30 06:43:46;;;;;;;13.20;2.93;;;6.50;99.90;;;;;;5092543;28;20301;-84
2023/12/30 06:46:12;;;;;;;18.17;2.70;;;6.60;99.90;;;;;;5092452;28;20726;-83
2023/12/30 06:48:38;;;;;;;12.97;2.60;;;6.60;99.90;;;;;;5075206;28;20368;-82
2023/12/30 06:51:08;;;;;;;16.97;2.83;;;6.60;99.90;;;;;;5091758;28;20106;-82
2023/12/30 06:53:34;;;;;;;13.63;2.73;;;6.50;99.90;;;;;;5075319;28;20055;-82
2023/12/30 06:56:01;;;;;;;17.83;2.77;;;6.50;99.90;;;;;;5092175;28;20286;-83
2023/12/30 06:58:28;;;;;;;15.73;2.73;;;6.50;99.90;;;;;;5092088;28;20123;-84
2023/12/30 07:00:53;;;;;;;13.45;2.80;;;6.50;99.90;;;;;;5093082;28;20281;-83
2023/12/30 07:03:19;;;;;;;16.13;2.77;;;6.50;99.90;;;;;;5091788;28;20400;-83
2023/12/30 07:05:45;;;;;;;18.57;2.60;;;6.50;99.90;;;;;;5092636;28;20652;-85
2023/12/30 07:08:10;;;;;;;12.93;2.77;;;6.50;99.90;;;;;;5093122;28;20052;-83
2023/12/30 07:10:36;;;;;;;20.63;2.50;;;6.50;99.90;;;;;;5091841;28;20044;-83
2023/12/30 07:13:02;;;;;;;14.37;2.67;;;6.50;99.90;;;;;;5095232;28;20048;-83
2023/12/30 07:15:28;;;;;;;17.70;2.57;;;6.50;99.90;;;;;;5095678;28;20044;-83
2023/12/30 07:17:54;;;;;;;17.87;2.53;;;6.50;99.90;;;;;;5095872;28;20469;-83
2023/12/30 07:20:21;;;;;;;15.50;2.63;;;6.60;99.90;;;;;;5096038;28;20114;-84
2023/12/30 07:22:47;;;;;;;21.10;2.80;;;6.60;99.90;;;;;;5095537;28;20278;-84
2023/12/30 07:25:13;;;;;;;18.60;3.00;;;6.60;99.90;;;;;;5078807;28;20340;-83
2023/12/30 07:27:39;;;;;;;16.10;2.60;;;6.60;99.90;;;;;;5095556;28;20067;-83
2023/12/30 07:30:06;;;;;;;16.23;3.13;;;6.60;99.90;;;;;;5095668;28;20775;-83
2023/12/30 07:32:32;;;;;;;16.43;3.43;;;6.60;99.90;;;;;;5096299;28;20524;-82
2023/12/30 07:34:58;;;;;;;18.57;3.10;;;6.60;99.90;;;;;;5095003;28;20330;-83
2023/12/30 07:37:24;;;;;;;21.13;3.83;;;6.60;99.90;;;;;;5095436;28;20130;-82
2023/12/30 07:39:50;;;;;;;15.80;2.70;;;6.70;99.90;;;;;;5095541;28;20294;-83
2023/12/30 07:42:18;;;;;;;16.83;2.63;;;6.70;99.90;;;;;;5095742;28;20040;-83
2023/12/30 07:44:44;;;;;;;15.00;2.40;;;6.70;99.90;;;;;;5095007;28;20040;-84
2023/12/30 07:47:10;;;;;;;18.17;2.83;;;6.70;99.90;;;;;;5078327;28;20789;-84
2023/12/30 07:49:36;;;;;;;16.27;2.37;;;6.70;99.90;;;;;;5095248;28;20094;-83
2023/12/30 07:52:02;;;;;;;16.33;2.63;;;6.70;99.90;;;;;;5078860;28;20051;-84
2023/12/30 07:54:27;;;;;;;9.73;1.80;;;6.60;99.90;;;;;;5096249;28;20044;-83
2023/12/30 07:56:53;;;;;;;16.70;3.00;;;6.70;99.90;;;;;;5078591;28;20685;-84
2023/12/30 07:59:19;;;;;;;18.80;2.80;;;6.60;99.90;;;;;;5095069;28;20044;-83
2023/12/30 08:01:45;;;;;;;20.13;3.23;;;6.50;99.90;;;;;;5094640;28;20098;-83
2023/12/30 08:04:11;;;;;;;17.30;2.73;;;6.50;99.90;;;;;;5095030;28;20507;-84
2023/12/30 08:06:39;;;;;;;16.20;2.90;;;6.50;99.90;;;;;;5094935;28;20060;-83
2023/12/30 08:09:05;;;;;;;15.23;2.80;;;6.40;99.90;;;;;;5094910;28;20802;-84
2023/12/30 08:11:33;;;;;;;19.93;2.93;;;6.40;99.90;;;;;;5094616;28;20282;-83
2023/12/30 08:13:59;;;;;;;13.73;2.90;;;6.40;99.90;;;;;;5094951;28;20095;-83
2023/12/30 08:16:24;;;;;;;19.23;2.73;;;6.40;99.90;;;;;;5094643;28;20321;-83
2023/12/30 08:18:50;;;;;;;15.60;2.73;;;6.30;99.90;;;;;;5094704;28;20036;-83
2023/12/30 08:21:16;;;;;;;20.23;2.83;;;6.30;99.90;;;;;;5094928;28;20048;-78
2023/12/30 08:23:41;;;;;;;17.07;2.50;;;6.20;99.90;;;;;;5093427;28;20079;-85
2023/12/30 08:26:07;;;;;;;20.33;2.70;;;6.30;99.90;;;;;;5094583;28;20051;-83
2023/12/30 08:28:33;;;;;;;14.20;3.00;;;6.30;99.90;;;;;;5094328;28;20059;-85
2023/12/30 08:31:00;;;;;;;21.10;2.80;;;6.30;99.90;;;;;;5077725;28;20467;-85
2023/12/30 08:33:26;;;;;;;13.77;2.20;;;6.30;99.90;;;;;;5094730;28;20052;-82
2023/12/30 08:35:52;;;;;;;15.20;2.70;;;6.30;99.90;;;;;;5095092;28;20367;-81
2023/12/30 08:38:18;;;;;;;17.37;2.67;;;6.30;99.90;;;;;;5095641;28;20365;-81
2023/12/30 08:40:44;;;;;;;14.57;2.47;;;6.40;99.90;;;;;;5077274;28;20394;-78
2023/12/30 08:43:11;;;;;;;20.10;3.40;;;6.40;99.90;;;;;;5095236;28;20336;-78
2023/12/30 08:45:37;;;;;;;16.27;2.57;;;6.40;99.90;;;;;;5093940;28;20468;-79
2023/12/30 08:48:04;;;;;;;14.60;2.83;;;6.50;99.90;;;;;;5095302;28;20316;-79
2023/12/30 08:50:30;;;;;;;9.47;2.00;;;6.50;99.90;;;;;;5094068;28;20278;-80
2023/12/30 08:52:56;;;;;;;17.33;3.07;;;6.50;99.90;;;;;;5095064;28;20358;-79
2023/12/30 08:55:22;;;;;;;12.07;2.00;;;6.50;99.90;;;;;;5095089;28;20751;-79
2023/12/30 08:57:48;;;;;;;15.33;2.67;;;6.60;99.90;;;;;;5094841;28;20079;-78
2023/12/30 09:00:14;;;;;;;13.37;2.20;;;6.60;99.90;;;;;;5094799;28;20044;-79
2023/12/30 09:02:46;;;;;;;18.47;3.00;;;6.60;99.90;;;;;;5093923;28;20520;-79
2023/12/30 09:05:18;;;;;;;14.13;2.47;;;6.60;99.90;;;;;;5093986;28;20306;-82
2023/12/30 09:07:44;;;;;;;18.10;2.70;;;6.60;99.90;;;;;;5093876;28;20373;-80
2023/12/30 09:10:10;;;;;;;19.33;3.10;;;6.60;99.90;;;;;;5094856;28;20278;-80
2023/12/30 09:12:36;;;;;;;20.77;2.57;;;6.70;99.90;;;;;;5093245;28;20297;-80
2023/12/30 09:15:02;;;;;;;20.23;3.90;;;6.70;99.90;;;;;;5093804;28;20134;-80
2023/12/30 09:17:27;;;;;;;13.10;2.60;;;6.70;99.90;;;;;;5094736;28;20131;-79
2023/12/30 09:19:54;;;;;;;13.37;2.23;;;6.70;99.90;;;;;;5094518;28;20047;-81
2023/12/30 09:22:20;;;;;;;17.80;2.60;;;6.70;99.90;;;;;;5094762;28;20141;-80
2023/12/30 09:24:46;;;;;;;13.90;2.37;;;6.80;99.90;;;;;;5092974;28;20306;-80
2023/12/30 09:27:11;;;;;;;14.03;2.30;;;6.80;99.90;;;;;;5094303;28;20278;-81
2023/12/30 09:29:37;;;;;;;16.43;2.60;;;6.80;99.90;;;;;;5093073;28;20056;-80
2023/12/30 09:32:03;;;;;;;10.63;2.37;;;6.80;99.90;;;;;;5094444;28;20123;-79
2023/12/30 09:34:29;;;;;;;16.77;3.03;;;6.80;99.90;;;;;;5094238;28;20477;-80
2023/12/30 09:36:55;;;;;;;14.67;2.63;;;6.80;99.90;;;;;;5092711;28;20083;-80
2023/12/30 09:39:20;;;;;;;17.07;3.13;;;6.80;99.90;;;;;;5094070;28;20055;-80
2023/12/30 09:41:46;;;;;;;15.63;3.27;;;6.80;99.90;;;;;;5092818;28;20455;-80
2023/12/30 09:44:13;;;;;;;13.07;2.57;;;6.80;99.90;;;;;;5094222;28;20046;-80
2023/12/30 09:46:40;;;;;;;15.47;3.00;;;6.90;99.90;;;;;;5094028;28;20122;-82
2023/12/30 09:49:06;;;;;;;12.00;2.37;;;6.80;99.90;;;;;;5093512;28;20292;-82
2023/12/30 09:51:33;;;;;;;15.13;2.27;;;6.80;99.90;;;;;;5093120;28;20707;-79
2023/12/30 09:53:59;;;;;;;13.93;2.60;;;6.90;99.90;;;;;;5093715;28;20361;-81
2023/12/30 09:56:26;;;;;;;17.20;2.70;;;6.90;99.90;;;;;;5092496;28;20293;-81
2023/12/30 09:58:53;;;;;;;15.13;3.33;;;6.90;99.90;;;;;;5093751;28;20696;-80
2023/12/30 10:01:20;;;;;;;14.47;3.20;;;6.90;99.90;;;;;;5093904;28;20685;-81
2023/12/30 10:03:46;;;;;;;14.17;2.53;;;6.90;99.90;;;;;;5093393;28;20294;-80
2023/12/30 10:06:17;;;;;;;13.37;2.20;;;6.90;99.90;;;;;;5094049;28;20330;-80
2023/12/30 10:08:44;;;;;;;14.47;2.53;;;6.90;99.90;;;;;;5092488;28;20294;-81
2023/12/30 10:11:10;;;;;;;16.07;2.90;;;6.90;99.90;;;;;;5092521;28;20314;-82
2023/12/30 10:13:39;;;;;;;12.57;2.10;;;6.90;99.90;;;;;;5075700;28;20281;-81
2023/12/30 10:16:06;;;;;;;14.97;2.47;;;6.90;99.90;;;;;;5093430;28;20324;-80
2023/12/30 10:18:38;;;;;;;14.30;2.77;;;6.90;99.90;;;;;;5093546;28;20285;-81
2023/12/30 10:21:05;;;;;;;16.80;2.87;;;6.90;99.90;;;;;;5093258;28;20289;-83
2023/12/30 10:23:33;;;;;;;19.07;2.77;;;6.90;99.90;;;;;;5075682;28;20290;-86
2023/12/30 10:25:59;;;;;;;17.97;3.03;;;6.90;99.90;;;;;;5092281;28;20278;-86
2023/12/30 10:28:25;;;;;;;11.07;2.20;;;6.90;99.90;;;;;;5092682;28;20282;-84
2023/12/30 10:31:04;;;;;;;15.50;3.03;;;6.90;99.90;;;;;;5093037;28;20296;-83
2023/12/30 10:33:30;;;;;;;13.07;2.40;;;6.90;99.90;;;;;;5093265;28;20051;-82
2023/12/30 10:35:57;;;;;;;11.43;2.07;;;6.90;99.90;;;;;;5074973;28;20301;-83
2023/12/30 10:38:23;;;;;;;17.27;2.87;;;7.00;99.90;;;;;;5075151;28;20771;-81
2023/12/30 10:40:52;;;;;;;12.53;2.53;;;7.00;99.90;;;;;;5093241;28;20286;-76
2023/12/30 10:43:19;;;;;;;19.37;3.13;;;7.00;99.90;;;;;;5093207;28;20842;-82
2023/12/30 10:45:58;;;;;;;12.63;2.30;;;7.00;99.90;;;;;;5092025;28;20424;-83
2023/12/30 10:48:29;;;;;;;12.93;2.10;;;7.10;99.90;;;;;;5091685;28;20287;-85
2023/12/30 10:50:56;;;;;;;13.87;2.63;;;7.10;99.90;;;;;;5075765;28;20294;-89
2023/12/30 10:53:39;;;;;;;14.53;2.80;;;7.10;99.90;;;;;;5092422;28;20349;-89
2023/12/30 10:56:09;;;;;;;10.43;3.13;;;7.10;99.90;;;;;;5092805;28;20290;-87
2023/12/30 10:58:35;;;;;;;13.00;2.63;;;7.20;99.90;;;;;;5091979;28;20328;-87
2023/12/30 11:01:03;;;;;;;12.57;2.50;;;7.20;99.90;;;;;;5091735;28;20841;-90
2023/12/30 11:03:31;;;;;;;15.77;2.67;;;7.20;99.90;;;;;;5093130;28;20285;-89
2023/12/30 11:06:04;;;;;;;14.47;3.17;;;7.20;99.90;;;;;;5092888;28;20273;-86
2023/12/30 11:08:29;;;;;;;13.37;2.23;;;7.30;99.90;;;;;;5093357;28;20336;-88
2023/12/30 11:10:59;;;;;;;11.50;2.47;;;7.30;99.90;;;;;;5092794;28;20306;-84
2023/12/30 11:13:25;;;;;;;10.17;2.10;;;7.30;99.90;;;;;;5092942;28;20078;-83
2023/12/30 11:15:50;;;;;;;10.93;2.33;;;7.40;99.90;;;;;;5092488;28;20324;-78
2023/12/30 11:18:45;;;;;;;16.27;2.70;;;7.40;99.90;;;;;;5092623;28;20078;-82
2023/12/30 11:21:11;;;;;;;14.53;2.80;;;7.40;99.90;;;;;;5092739;28;20459;-80
2023/12/30 11:23:37;;;;;;;10.53;2.30;;;7.50;99.90;;;;;;5092942;28;20289;-83
2023/12/30 11:26:05;;;;;;;16.60;3.30;;;7.60;99.90;;;;;;5092535;28;20516;-82
2023/12/30 11:28:34;;;;;;;12.23;2.20;;;7.70;99.90;;;;;;5092887;28;20047;-85
2023/12/30 11:31:00;;;;;;;12.57;2.57;;;7.60;99.90;;;;;;5092703;28;20355;-83
2023/12/30 11:33:27;;;;;;;17.57;3.37;;;7.60;99.90;;;;;;5091825;28;20289;-88
2023/12/30 11:35:56;;;;;;;13.40;3.40;;;7.60;99.90;;;;;;5092601;28;20400;-85
2023/12/30 11:38:24;;;;;;;13.90;2.30;;;7.60;99.90;;;;;;5092710;28;20282;-81
2023/12/30 11:40:57;;;;;;;11.60;2.13;;;7.60;99.90;;;;;;5092762;28;20282;-78
2023/12/30 11:43:25;;;;;;;11.90;2.43;;;7.60;99.90;;;;;;5092904;28;20274;-77
2023/12/30 11:45:52;;;;;;;14.93;2.60;;;7.60;99.90;;;;;;5092568;28;20774;-79
2023/12/30 11:48:18;;;;;;;11.50;3.20;;;7.60;99.90;;;;;;5092826;28;20278;-78
2023/12/30 11:50:43;;;;;;;17.37;2.43;;;7.60;99.90;;;;;;5091695;28;20763;-78
2023/12/30 11:53:09;;;;;;;14.83;2.63;;;7.70;99.90;;;;;;5092229;28;20401;-80
2023/12/30 11:55:35;;;;;;;13.90;3.10;;;7.70;99.90;;;;;;5074852;28;20051;-78
2023/12/30 11:58:00;;;;;;;15.00;3.17;;;7.70;99.90;;;;;;5092411;28;20051;-79
2023/12/30 12:00:26;;;;;;;13.93;3.00;;;7.80;99.90;;;;;;5095225;28;20047;-80
2023/12/30 12:02:53;;;;;;;16.47;3.13;;;7.70;99.90;;;;;;5095065;28;20055;-81
2023/12/30 12:05:19;;;;;;;16.10;3.47;;;7.90;99.90;;;;;;5094799;28;20675;-81
2023/12/30 12:07:45;;;;;;;13.40;3.33;;;7.90;99.90;;;;;;5095955;28;20627;-81
2023/12/30 12:10:11;;;;;;;17.97;3.17;;;7.90;99.90;;;;;;5095854;28;20278;-78
2023/12/30 12:12:38;;;;;;;10.67;2.37;;;7.90;99.90;;;;;;5095088;28;20602;-83
2023/12/30 12:15:06;;;;;;;15.83;3.40;;;7.90;99.90;;;;;;5095762;28;20048;-80
2023/12/30 12:17:32;;;;;;;16.37;2.93;;;7.90;99.90;;;;;;5095837;28;20291;-89
2023/12/30 12:19:58;;;;;;;13.50;2.47;;;7.90;99.90;;;;;;5094568;28;20286;-86
2023/12/30 12:22:24;;;;;;;12.17;2.63;;;7.90;99.90;;;;;;5095643;28;20040;-88
2023/12/30 12:24:50;;;;;;;15.47;3.03;;;7.90;99.90;;;;;;5094570;28;20048;-82
2023/12/30 12:27:22;;;;;;;12.40;3.10;;;7.90;99.90;;;;;;5095603;28;20171;-82
2023/12/30 12:29:52;;;;;;;22.23;3.57;;;7.90;99.90;;;;;;5095646;28;20560;-82
2023/12/30 12:32:22;;;;;;;13.43;2.43;;;7.90;99.90;;;;;;5095431;28;20361;-80
2023/12/30 12:34:48;;;;;;;13.23;3.20;;;8.00;99.90;;;;;;5095504;28;20317;-80
2023/12/30 12:37:18;;;;;;;15.90;3.00;;;8.00;99.90;;;;;;5095077;28;20293;-85
2023/12/30 12:39:44;;;;;;;13.90;2.60;;;8.00;99.90;;;;;;5092709;28;20275;-78
2023/12/30 12:42:14;;;;;;;14.37;1.97;;;8.00;99.90;;;;;;5093067;28;20328;-81
2023/12/30 12:44:39;;;;;;;13.70;2.80;;;8.00;99.90;;;;;;5093577;28;20355;-81